createdAt,value
2023-03-20T00:00:21.462Z,2.30
2023-03-20T00:03:12.296Z,2.15
2023-03-20T00:05:59.956Z,2.08
2023-03-20T00:08:48.820Z,1.98
2023-03-20T00:11:44.487Z,2.08
2023-03-20T00:14:32.165Z,1.88
2023-03-20T00:17:21.425Z,2.07
2023-03-20T00:20:15.860Z,1.97
2023-03-20T00:23:04.504Z,2.15
2023-03-20T00:25:52.535Z,1.94
2023-03-20T00:28:46.531Z,2.05
2023-03-20T00:31:37.504Z,2.14
2023-03-20T00:34:29.886Z,1.86
2023-03-20T00:37:17.460Z,2.02
2023-03-20T00:40:05.700Z,1.97
2023-03-20T00:42:59.273Z,1.94
2023-03-20T00:45:47.344Z,1.89
2023-03-20T00:48:35.295Z,1.87
2023-03-20T00:51:23.014Z,1.78
2023-03-20T00:54:17.510Z,1.75
2023-03-20T00:57:31.169Z,1.61
2023-03-20T01:00:39.616Z,1.67
2023-03-20T01:03:30.232Z,1.49
2023-03-20T01:06:20.484Z,1.59
2023-03-20T01:09:11.225Z,1.57
2023-03-20T01:12:00.958Z,1.44
2023-03-20T01:14:56.154Z,1.49
2023-03-20T01:17:44.433Z,1.31
2023-03-20T01:20:32.535Z,1.57
2023-03-20T01:23:23.040Z,1.51
2023-03-20T01:26:30.350Z,1.56
2023-03-20T01:29:24.099Z,1.52
2023-03-20T01:32:21.669Z,1.48
2023-03-20T01:35:17.101Z,1.51
2023-03-20T01:38:12.097Z,1.45
2023-03-20T01:41:06.202Z,1.46
2023-03-20T01:43:55.863Z,1.42
2023-03-20T01:46:44.018Z,1.31
2023-03-20T01:50:16.891Z,1.31
2023-03-20T01:53:10.068Z,1.36
2023-03-20T01:56:02.758Z,1.29
2023-03-20T01:59:05.812Z,1.05
2023-03-20T02:01:55.539Z,1.35
2023-03-20T02:04:48.316Z,1.22
2023-03-20T02:07:39.726Z,1.23
2023-03-20T02:10:30.511Z,1.27
2023-03-20T02:13:34.537Z,1.14
2023-03-20T02:16:22.657Z,0.82
2023-03-20T02:19:32.055Z,0.98
2023-03-20T02:22:44.290Z,0.95
2023-03-20T02:25:44.653Z,0.87
2023-03-20T02:28:52.672Z,0.75
2023-03-20T02:32:06.506Z,0.82
2023-03-20T02:35:17.727Z,0.88
2023-03-20T02:38:34.175Z,0.74
2023-03-20T02:41:45.385Z,0.42
2023-03-20T02:44:44.585Z,0.69
2023-03-20T02:47:56.470Z,0.34
2023-03-20T02:51:06.561Z,0.64
2023-03-20T02:54:08.210Z,0.68
2023-03-20T02:57:10.778Z,0.63
2023-03-20T03:00:28.936Z,0.53
2023-03-20T03:03:32.382Z,0.53
2023-03-20T03:06:31.759Z,0.52
2023-03-20T03:09:36.182Z,0.45
2023-03-20T03:12:28.818Z,0.48
2023-03-20T03:15:31.333Z,0.33
2023-03-20T03:18:21.964Z,0.37
2023-03-20T03:21:13.843Z,0.52
2023-03-20T03:24:01.697Z,0.13
2023-03-20T03:26:49.823Z,0.27
2023-03-20T03:29:41.005Z,0.44
2023-03-20T03:32:40.883Z,0.36
2023-03-20T03:35:28.608Z,0.18
2023-03-20T03:39:01.659Z,0.48
2023-03-20T03:42:17.016Z,0.48
2023-03-20T03:45:17.566Z,0.42
2023-03-20T03:48:23.311Z,0.48
2023-03-20T03:51:16.991Z,0.53
2023-03-20T03:54:50.637Z,0.44
2023-03-20T03:58:12.814Z,0.54
2023-03-20T04:01:03.187Z,0.37
2023-03-20T04:03:55.142Z,0.51
2023-03-20T04:06:45.318Z,0.38
2023-03-20T04:09:33.901Z,0.43
2023-03-20T04:12:43.117Z,0.37
2023-03-20T04:15:31.211Z,0.33
2023-03-20T04:18:20.389Z,0.09
2023-03-20T04:21:12.688Z,0.30
2023-03-20T04:24:00.713Z,0.31
2023-03-20T04:26:48.485Z,0.29
2023-03-20T04:29:39.152Z,0.35
2023-03-20T04:32:47.196Z,0.34
2023-03-20T04:35:40.751Z,0.18
2023-03-20T04:38:33.210Z,0.49
2023-03-20T04:41:21.939Z,0.34
2023-03-20T04:44:14.787Z,0.53
2023-03-20T04:47:06.069Z,0.59
2023-03-20T04:49:57.186Z,0.53
2023-03-20T04:52:55.366Z,0.50
2023-03-20T04:55:46.077Z,0.83
2023-03-20T04:58:36.911Z,0.96
2023-03-20T05:01:28.006Z,0.94
2023-03-20T05:04:16.083Z,0.79
2023-03-20T05:07:03.974Z,1.14
2023-03-20T05:10:03.946Z,1.29
2023-03-20T05:12:59.776Z,1.46
2023-03-20T05:16:06.171Z,1.38
2023-03-20T05:19:06.690Z,1.70
2023-03-20T05:22:14.493Z,1.94
2023-03-20T05:25:02.179Z,2.30
2023-03-20T05:28:23.757Z,3.04
2023-03-20T05:31:30.052Z,3.42
2023-03-20T05:34:47.908Z,3.82
2023-03-20T05:38:01.883Z,4.00
2023-03-20T05:41:03.016Z,4.10
2023-03-20T05:44:13.573Z,3.52
2023-03-20T05:47:27.525Z,4.02
2023-03-20T05:50:18.124Z,4.17
2023-03-20T05:53:25.922Z,4.62
2023-03-20T05:56:45.010Z,4.79
2023-03-20T05:59:51.765Z,4.62
2023-03-20T06:03:12.483Z,4.96
2023-03-20T06:06:23.206Z,5.70
2023-03-20T06:09:12.649Z,6.12
2023-03-20T06:12:00.532Z,6.20
2023-03-20T06:14:48.505Z,6.45
2023-03-20T06:17:36.678Z,6.62
2023-03-20T06:20:25.108Z,7.27
2023-03-20T06:23:13.914Z,7.82
2023-03-20T06:26:01.606Z,8.02
2023-03-20T06:28:51.179Z,8.19
2023-03-20T06:31:38.894Z,7.77
2023-03-20T06:34:30.523Z,7.98
2023-03-20T06:37:19.880Z,8.31
2023-03-20T06:40:08.632Z,8.28
2023-03-20T06:42:57.352Z,8.21
2023-03-20T06:45:53.027Z,8.25
2023-03-20T06:48:42.921Z,8.44
2023-03-20T06:51:30.841Z,8.54
2023-03-20T06:54:18.679Z,8.37
2023-03-20T06:57:06.441Z,8.01
2023-03-20T06:59:54.479Z,8.45
2023-03-20T07:02:42.157Z,8.60
2023-03-20T07:05:32.846Z,8.63
2023-03-20T07:08:22.818Z,9.13
2023-03-20T07:11:11.097Z,9.34
2023-03-20T07:13:59.895Z,9.43
2023-03-20T07:17:09.399Z,10.74
2023-03-20T07:19:57.874Z,11.59
2023-03-20T07:22:45.643Z,10.61
2023-03-20T07:25:42.801Z,10.95
2023-03-20T07:28:36.452Z,11.51
2023-03-20T07:31:33.010Z,12.13
2023-03-20T07:34:28.982Z,12.09
2023-03-20T07:37:17.666Z,11.46
2023-03-20T07:40:16.660Z,11.65
2023-03-20T07:43:20.211Z,11.71
2023-03-20T07:46:47.569Z,11.80
2023-03-20T07:49:36.288Z,12.24
2023-03-20T07:52:23.989Z,13.08
2023-03-20T07:55:14.058Z,12.84
2023-03-20T07:58:01.755Z,13.28
2023-03-20T08:00:49.428Z,13.15
2023-03-20T08:03:40.100Z,12.92
2023-03-20T08:06:27.779Z,13.37
2023-03-20T08:09:16.002Z,13.97
2023-03-20T08:12:04.928Z,14.35
2023-03-20T08:14:52.680Z,14.60
2023-03-20T08:17:46.800Z,13.98
2023-03-20T08:20:35.375Z,14.01
2023-03-20T08:23:23.015Z,14.96
2023-03-20T08:26:10.679Z,15.26
2023-03-20T08:28:59.501Z,15.37
2023-03-20T08:31:47.268Z,15.22
2023-03-20T08:34:35.694Z,14.76
2023-03-20T08:37:23.482Z,15.34
2023-03-20T08:40:11.959Z,15.73
2023-03-20T08:43:02.655Z,16.29
2023-03-20T08:45:50.279Z,16.43
2023-03-20T08:48:38.078Z,16.46
2023-03-20T08:51:25.875Z,16.41
2023-03-20T08:54:15.288Z,16.30
2023-03-20T08:57:02.998Z,16.09
2023-03-20T08:59:50.549Z,16.46
2023-03-20T09:02:38.280Z,16.86
2023-03-20T09:05:26.236Z,17.23
2023-03-20T09:08:14.837Z,17.54
2023-03-20T09:11:02.856Z,17.10
2023-03-20T09:13:50.451Z,16.76
2023-03-20T09:16:38.281Z,17.46
2023-03-20T09:19:26.331Z,17.68
2023-03-20T09:22:15.601Z,17.55
2023-03-20T09:25:03.432Z,17.37
2023-03-20T09:27:57.886Z,17.63
2023-03-20T09:30:46.083Z,17.26
2023-03-20T09:33:33.783Z,17.16
2023-03-20T09:36:21.421Z,17.09
2023-03-20T09:39:09.187Z,17.93
2023-03-20T09:42:04.373Z,18.30
2023-03-20T09:44:56.971Z,18.82
2023-03-20T09:48:04.753Z,19.40
2023-03-20T09:51:19.166Z,17.72
2023-03-20T09:54:18.485Z,17.64
2023-03-20T09:57:17.428Z,18.18
2023-03-20T10:00:34.829Z,18.67
2023-03-20T10:03:28.402Z,19.09
2023-03-20T10:06:18.234Z,18.83
2023-03-20T10:09:14.280Z,18.51
2023-03-20T10:12:21.016Z,18.51
2023-03-20T10:15:18.285Z,19.02
2023-03-20T10:18:23.242Z,19.52
2023-03-20T10:21:20.582Z,19.98
2023-03-20T10:24:31.425Z,20.44
2023-03-20T10:27:34.740Z,20.52
2023-03-20T10:30:57.732Z,20.42
2023-03-20T10:34:16.344Z,20.06
2023-03-20T10:37:31.602Z,20.31
2023-03-20T10:40:32.222Z,20.65
2023-03-20T10:43:21.699Z,20.99
2023-03-20T10:46:14.000Z,20.93
2023-03-20T10:49:02.100Z,20.77
2023-03-20T10:51:56.543Z,21.01
2023-03-20T10:54:58.444Z,20.27
2023-03-20T10:57:53.172Z,19.73
2023-03-20T11:00:41.357Z,19.64
2023-03-20T11:03:33.042Z,19.86
2023-03-20T11:06:29.082Z,20.72
2023-03-20T11:09:21.437Z,21.04
2023-03-20T11:12:18.580Z,20.67
2023-03-20T11:15:27.961Z,19.61
2023-03-20T11:18:17.982Z,20.45
2023-03-20T11:21:11.815Z,21.21
2023-03-20T11:23:59.563Z,20.66
2023-03-20T11:26:47.373Z,20.58
2023-03-20T11:29:36.105Z,20.60
2023-03-20T11:32:35.046Z,20.90
2023-03-20T11:35:28.558Z,21.11
2023-03-20T11:38:20.861Z,21.30
2023-03-20T11:41:18.971Z,21.56
2023-03-20T11:44:33.478Z,21.27
2023-03-20T11:47:25.977Z,20.65
2023-03-20T11:50:30.087Z,21.05
2023-03-20T11:53:32.510Z,21.48
2023-03-20T11:56:37.925Z,21.53
2023-03-20T11:59:35.231Z,21.85
2023-03-20T12:02:25.556Z,21.76
2023-03-20T12:05:33.219Z,22.12
2023-03-20T12:08:25.716Z,22.19
2023-03-20T12:11:36.733Z,21.84
2023-03-20T12:14:28.684Z,21.71
2023-03-20T12:17:35.224Z,21.83
2023-03-20T12:20:53.864Z,22.17
2023-03-20T12:24:02.988Z,22.60
2023-03-20T12:26:57.139Z,22.09
2023-03-20T12:29:51.424Z,22.05
2023-03-20T12:32:54.917Z,22.11
2023-03-20T12:35:48.070Z,21.38
2023-03-20T12:38:35.830Z,21.33
2023-03-20T12:41:30.140Z,21.49
2023-03-20T12:44:23.914Z,21.94
2023-03-20T12:47:33.391Z,22.27
2023-03-20T12:50:45.681Z,22.28
2023-03-20T12:54:11.208Z,22.08
2023-03-20T12:57:25.737Z,22.17
2023-03-20T13:00:32.394Z,22.12
2023-03-20T13:03:57.632Z,21.33
2023-03-20T13:06:55.414Z,21.19
2023-03-20T13:10:04.264Z,21.38
2023-03-20T13:12:54.715Z,21.66
2023-03-20T13:16:02.805Z,21.81
2023-03-20T13:19:02.213Z,21.70
2023-03-20T13:22:18.812Z,21.53
2023-03-20T13:25:06.563Z,21.35
2023-03-20T13:27:54.147Z,21.44
2023-03-20T13:30:53.669Z,21.48
2023-03-20T13:33:44.156Z,21.58
2023-03-20T13:36:40.827Z,21.11
2023-03-20T13:39:40.906Z,21.26
2023-03-20T13:42:38.331Z,21.04
2023-03-20T13:45:35.268Z,21.25
2023-03-20T13:48:22.835Z,21.32
2023-03-20T13:51:22.724Z,21.20
2023-03-20T13:54:26.889Z,21.37
2023-03-20T13:57:33.078Z,21.29
2023-03-20T14:00:23.932Z,21.30
2023-03-20T14:03:25.663Z,21.14
2023-03-20T14:06:32.126Z,20.92
2023-03-20T14:09:30.911Z,20.96
2023-03-20T14:12:18.577Z,20.78
2023-03-20T14:15:06.543Z,21.12
2023-03-20T14:17:54.340Z,21.05
2023-03-20T14:20:43.925Z,20.92
2023-03-20T14:23:39.349Z,20.73
2023-03-20T14:26:30.961Z,20.53
2023-03-20T14:29:18.482Z,20.56
2023-03-20T14:32:33.442Z,20.66
2023-03-20T14:35:26.247Z,20.62
2023-03-20T14:38:54.908Z,20.55
2023-03-20T14:41:49.006Z,20.37
2023-03-20T14:44:51.246Z,20.47
2023-03-20T14:48:08.967Z,20.41
2023-03-20T14:51:15.591Z,20.31
2023-03-20T14:54:21.725Z,20.11
2023-03-20T14:57:26.778Z,20.13
2023-03-20T15:00:27.583Z,20.19
2023-03-20T15:03:17.790Z,20.15
2023-03-20T15:06:08.296Z,20.09
2023-03-20T15:09:01.141Z,19.91
2023-03-20T15:11:49.530Z,19.68
2023-03-20T15:14:47.876Z,19.74
2023-03-20T15:17:38.431Z,19.73
2023-03-20T15:20:29.652Z,19.51
2023-03-20T15:23:17.343Z,19.47
2023-03-20T15:26:05.566Z,19.40
2023-03-20T15:29:06.011Z,19.29
2023-03-20T15:32:12.414Z,19.18
2023-03-20T15:34:59.536Z,19.10
2023-03-20T15:37:49.472Z,18.92
2023-03-20T15:40:50.489Z,18.67
2023-03-20T15:43:44.872Z,18.65
2023-03-20T15:46:32.571Z,18.52
2023-03-20T15:49:25.212Z,18.41
2023-03-20T15:52:29.600Z,18.11
2023-03-20T15:55:20.136Z,17.91
2023-03-20T15:58:08.015Z,17.71
2023-03-20T16:00:55.932Z,17.34
2023-03-20T16:03:44.139Z,17.31
2023-03-20T16:06:32.052Z,17.03
2023-03-20T16:09:20.041Z,16.79
2023-03-20T16:12:16.436Z,16.74
2023-03-20T16:15:06.106Z,16.50
2023-03-20T16:17:57.717Z,16.14
2023-03-20T16:21:03.429Z,15.81
2023-03-20T16:23:57.854Z,15.79
2023-03-20T16:26:50.452Z,15.51
2023-03-20T16:29:43.819Z,15.42
2023-03-20T16:32:47.521Z,15.15
2023-03-20T16:35:49.186Z,15.00
2023-03-20T16:38:38.096Z,14.75
2023-03-20T16:41:38.865Z,14.59
2023-03-20T16:44:34.330Z,14.34
2023-03-20T16:47:24.997Z,14.11
2023-03-20T16:50:24.089Z,13.73
2023-03-20T16:53:16.355Z,13.77
2023-03-20T16:56:05.459Z,13.63
2023-03-20T16:58:56.616Z,13.64
2023-03-20T17:01:48.757Z,13.64
2023-03-20T17:04:40.498Z,13.36
2023-03-20T17:07:28.677Z,13.16
2023-03-20T17:10:16.266Z,12.98
2023-03-20T17:13:03.942Z,12.86
2023-03-20T17:15:51.525Z,12.71
2023-03-20T17:18:40.086Z,12.62
2023-03-20T17:21:29.507Z,12.58
2023-03-20T17:24:21.365Z,12.44
2023-03-20T17:27:13.341Z,12.31
2023-03-20T17:30:02.061Z,12.54
2023-03-20T17:32:50.527Z,12.36
2023-03-20T17:35:39.685Z,12.38
2023-03-20T17:38:28.476Z,12.44
2023-03-20T17:41:18.246Z,12.43
2023-03-20T17:44:06.097Z,12.27
2023-03-20T17:46:58.642Z,12.27
2023-03-20T17:49:52.312Z,11.99
2023-03-20T17:52:41.158Z,12.02
2023-03-20T17:55:29.303Z,11.90
2023-03-20T17:58:20.558Z,11.74
2023-03-20T18:01:09.528Z,11.73
2023-03-20T18:03:57.223Z,11.46
2023-03-20T18:06:46.065Z,11.81
2023-03-20T18:09:34.853Z,11.67
2023-03-20T18:12:22.658Z,11.49
2023-03-20T18:15:10.889Z,11.07
2023-03-20T18:17:58.670Z,11.26
2023-03-20T18:20:47.460Z,11.07
2023-03-20T18:23:37.396Z,11.19
2023-03-20T18:26:27.503Z,10.97
2023-03-20T18:29:15.732Z,10.91
2023-03-20T18:32:03.509Z,10.93
2023-03-20T18:34:51.345Z,10.98
2023-03-20T18:37:41.033Z,10.70
2023-03-20T18:40:31.811Z,10.89
2023-03-20T18:43:19.442Z,10.85
2023-03-20T18:46:11.885Z,10.74
2023-03-20T18:48:59.519Z,10.68
2023-03-20T18:51:47.218Z,10.30
2023-03-20T18:54:34.882Z,10.61
2023-03-20T18:57:22.570Z,10.46
2023-03-20T19:00:21.503Z,10.36
2023-03-20T19:03:12.389Z,10.35
2023-03-20T19:06:00.282Z,10.20
2023-03-20T19:08:49.729Z,10.23
2023-03-20T19:11:37.429Z,10.35
2023-03-20T19:14:26.160Z,10.23
2023-03-20T19:17:13.819Z,10.16
2023-03-20T19:20:01.454Z,10.03
2023-03-20T19:22:49.097Z,9.94
2023-03-20T19:25:38.165Z,10.12
2023-03-20T19:28:38.590Z,10.08
2023-03-20T19:31:28.181Z,10.03
2023-03-20T19:34:44.494Z,9.95
2023-03-20T19:37:23.536Z,10.09
2023-03-20T19:40:25.475Z,9.99
2023-03-20T19:43:13.635Z,9.91
2023-03-20T19:46:01.251Z,9.77
2023-03-20T19:48:51.062Z,9.90
2023-03-20T19:51:39.148Z,9.69
2023-03-20T19:54:28.795Z,9.67
2023-03-20T19:57:17.191Z,9.63
2023-03-20T20:00:55.772Z,9.51
2023-03-20T20:03:21.610Z,9.34
2023-03-20T20:06:09.914Z,9.43
2023-03-20T20:08:57.888Z,9.38
2023-03-20T20:11:45.544Z,9.20
2023-03-20T20:14:35.045Z,9.08
2023-03-20T20:17:23.618Z,9.42
2023-03-20T20:20:12.371Z,9.38
2023-03-20T20:23:00.083Z,9.46
2023-03-20T20:25:48.749Z,9.45
2023-03-20T20:28:36.483Z,9.07
2023-03-20T20:31:30.872Z,9.30
2023-03-20T20:38:49.336Z,9.41
2023-03-20T20:41:38.533Z,9.30
2023-03-20T20:44:30.311Z,9.18
2023-03-20T20:47:18.181Z,9.09
2023-03-20T20:50:12.620Z,9.08
2023-03-20T20:53:17.636Z,8.91
2023-03-20T20:56:07.222Z,8.83
2023-03-20T20:58:55.566Z,8.80
2023-03-20T21:01:43.535Z,8.90
2023-03-20T21:04:31.696Z,8.94
2023-03-20T21:07:19.540Z,9.04
2023-03-20T21:10:08.106Z,9.04
2023-03-20T21:12:59.467Z,8.97
2023-03-20T21:15:47.957Z,8.90
2023-03-20T21:18:36.862Z,8.77
2023-03-20T21:21:25.508Z,8.71
2023-03-20T21:24:30.955Z,8.56
2023-03-20T21:27:21.817Z,8.65
2023-03-20T21:30:10.708Z,8.60
2023-03-20T21:32:58.457Z,8.56
2023-03-20T21:35:47.307Z,8.63
2023-03-20T21:39:05.926Z,8.46
2023-03-20T21:41:43.133Z,8.81
2023-03-20T21:45:35.668Z,8.71
2023-03-20T21:51:12.916Z,8.67
2023-03-20T22:03:34.883Z,8.60
2023-03-20T22:13:29.538Z,8.61
2023-03-20T22:32:35.265Z,8.85
2023-03-20T22:38:34.565Z,8.77
2023-03-20T22:47:16.387Z,8.67
2023-03-20T22:50:04.496Z,8.60
2023-03-20T22:52:55.834Z,8.57
2023-03-20T22:55:45.630Z,8.68
2023-03-20T22:58:33.650Z,8.23
2023-03-20T23:01:21.849Z,8.68
2023-03-20T23:04:09.511Z,8.70
2023-03-20T23:06:57.232Z,8.61
2023-03-20T23:09:44.976Z,8.78
2023-03-20T23:12:33.114Z,8.78
2023-03-20T23:15:20.869Z,8.74
2023-03-20T23:18:09.982Z,8.76
2023-03-20T23:21:02.038Z,8.67
2023-03-20T23:23:49.901Z,8.67
2023-03-20T23:26:42.129Z,8.65
2023-03-20T23:29:46.519Z,8.20
2023-03-20T23:32:38.259Z,8.50
2023-03-20T23:35:25.993Z,8.65
2023-03-20T23:38:13.686Z,8.30
2023-03-20T23:41:01.753Z,8.37
2023-03-20T23:43:51.594Z,8.29
2023-03-20T23:46:40.316Z,8.44
2023-03-20T23:49:28.134Z,8.39
2023-03-20T23:52:16.052Z,8.33
2023-03-20T23:55:04.385Z,8.40
2023-03-20T23:57:52.086Z,8.50
